createdAt,value
2022-12-15T00:29:36.811Z,996.45
2022-12-15T00:30:17.237Z,996.46
2022-12-15T00:31:02.196Z,996.47
2022-12-15T00:31:38.349Z,996.51
2022-12-15T00:32:18.812Z,996.55
2022-12-15T00:32:59.343Z,996.56
2022-12-15T00:33:39.807Z,996.57
2022-12-15T00:34:20.330Z,996.54
2022-12-15T00:35:00.767Z,996.56
2022-12-15T00:35:41.250Z,996.57
2022-12-15T00:36:21.724Z,996.59
2022-12-15T00:37:02.211Z,996.6
2022-12-15T00:37:42.696Z,996.59
2022-12-15T00:38:23.173Z,996.61
2022-12-15T00:39:04.195Z,996.65
2022-12-15T00:39:44.119Z,996.69
2022-12-15T00:40:24.588Z,996.62
2022-12-15T00:41:05.094Z,996.66
2022-12-15T00:41:45.584Z,996.64
2022-12-15T00:42:26.074Z,996.68
2022-12-15T00:43:06.580Z,996.62
2022-12-15T00:43:47.044Z,996.61
2022-12-15T00:44:27.518Z,996.63
2022-12-15T00:45:08.085Z,996.63
2022-12-15T00:45:48.565Z,996.64
2022-12-15T00:46:29.193Z,996.65
2022-12-15T00:47:09.543Z,996.63
2022-12-15T00:47:50.029Z,996.61
2022-12-15T00:48:30.504Z,996.63
2022-12-15T00:49:10.996Z,996.64
2022-12-15T00:49:51.527Z,996.64
2022-12-15T00:50:31.987Z,996.57
2022-12-15T00:51:12.519Z,996.61
2022-12-15T00:51:53.068Z,996.56
2022-12-15T00:52:33.546Z,996.57
2022-12-15T00:53:14.030Z,996.61
2022-12-15T00:53:54.511Z,996.59
2022-12-15T00:54:35.001Z,996.61
2022-12-15T00:55:15.483Z,996.65
2022-12-15T00:55:55.971Z,996.63
2022-12-15T00:56:36.553Z,996.65
2022-12-15T00:57:16.998Z,996.67
2022-12-15T00:57:57.484Z,996.64
2022-12-15T00:58:37.989Z,996.66
2022-12-15T00:59:18.484Z,996.7
2022-12-15T00:59:58.979Z,996.69
2022-12-15T01:00:39.511Z,996.69
2022-12-15T01:01:20.124Z,996.74
2022-12-15T01:02:00.639Z,996.72
2022-12-15T01:02:41.175Z,996.71
2022-12-15T01:03:21.639Z,996.73
2022-12-15T01:04:02.019Z,996.79
2022-12-15T01:04:42.470Z,996.79
2022-12-15T01:05:22.939Z,996.79
2022-12-15T01:06:03.416Z,996.77
2022-12-15T01:06:43.974Z,996.82
2022-12-15T01:07:24.478Z,996.83
2022-12-15T01:08:04.970Z,996.85
2022-12-15T01:08:45.497Z,996.8
2022-12-15T01:09:26.019Z,996.86
2022-12-15T01:10:06.524Z,996.8
2022-12-15T01:10:47.038Z,996.83
2022-12-15T01:11:27.535Z,996.79
2022-12-15T01:12:48.509Z,996.84
2022-12-15T01:13:29.345Z,996.79
2022-12-15T01:14:09.438Z,996.8
2022-12-15T01:14:49.901Z,996.83
2022-12-15T01:15:30.400Z,996.82
2022-12-15T01:16:10.999Z,996.84
2022-12-15T01:16:51.367Z,996.82
2022-12-15T01:17:31.875Z,996.78
2022-12-15T01:18:12.374Z,996.83
2022-12-15T01:18:52.835Z,996.77
2022-12-15T01:19:33.316Z,996.82
2022-12-15T01:20:13.804Z,996.84
2022-12-15T01:20:54.298Z,996.85
2022-12-15T01:21:34.794Z,996.91
2022-12-15T01:22:15.294Z,996.9
2022-12-15T01:23:36.280Z,996.98
2022-12-15T01:24:16.765Z,997
2022-12-15T01:24:57.247Z,997.01
2022-12-15T01:25:37.731Z,997.03
2022-12-15T01:26:18.211Z,997.03
2022-12-15T01:26:58.701Z,997.06
2022-12-15T01:27:39.191Z,997.03
2022-12-15T01:28:19.689Z,997.11
2022-12-15T01:29:00.217Z,997.12
2022-12-15T01:29:40.692Z,997.15
2022-12-15T01:30:21.166Z,997.15
2022-12-15T01:31:01.726Z,997.14
2022-12-15T01:31:42.247Z,997.18
2022-12-15T01:32:22.618Z,997.19
2022-12-15T01:33:03.064Z,997.23
2022-12-15T01:33:43.595Z,997.2
2022-12-15T01:34:24.058Z,997.2
2022-12-15T01:35:04.519Z,997.22
2022-12-15T01:35:45.009Z,997.22
2022-12-15T01:36:25.492Z,997.27
2022-12-15T01:37:05.987Z,997.25
2022-12-15T01:37:46.469Z,997.26
2022-12-15T01:38:27.131Z,997.26
2022-12-15T01:39:07.619Z,997.29
2022-12-15T01:39:48.147Z,997.27
2022-12-15T01:40:28.623Z,997.26
2022-12-15T01:41:09.136Z,997.26
2022-12-15T01:41:49.580Z,997.27
2022-12-15T01:42:30.105Z,997.3
2022-12-15T01:43:10.581Z,997.29
2022-12-15T01:43:51.095Z,997.26
2022-12-15T01:44:31.652Z,997.27
2022-12-15T01:45:12.125Z,997.26
2022-12-15T01:45:52.608Z,997.28
2022-12-15T01:46:33.181Z,997.29
2022-12-15T01:47:13.688Z,997.29
2022-12-15T01:47:54.060Z,997.3
2022-12-15T01:48:34.602Z,997.3
2022-12-15T01:49:15.053Z,997.28
2022-12-15T01:49:55.565Z,997.31
2022-12-15T01:50:36.072Z,997.28
2022-12-15T01:51:16.558Z,997.27
2022-12-15T01:51:57.031Z,997.31
2022-12-15T01:52:37.557Z,997.32
2022-12-15T01:53:18.037Z,997.33
2022-12-15T01:53:58.520Z,997.28
2022-12-15T01:54:39.026Z,997.31
2022-12-15T01:55:19.496Z,997.26
2022-12-15T01:55:59.959Z,997.26
2022-12-15T01:56:40.450Z,997.23
2022-12-15T01:57:20.985Z,997.25
2022-12-15T01:58:01.511Z,997.22
2022-12-15T01:58:41.992Z,997.2
2022-12-15T01:59:22.447Z,997.21
2022-12-15T02:00:02.938Z,997.2
2022-12-15T02:00:43.468Z,997.24
2022-12-15T02:01:24.097Z,997.24
2022-12-15T02:02:04.479Z,997.24
2022-12-15T02:02:44.998Z,997.23
2022-12-15T02:03:25.345Z,997.27
2022-12-15T02:04:05.819Z,997.29
2022-12-15T02:04:46.295Z,997.3
2022-12-15T02:05:26.789Z,997.34
2022-12-15T02:06:07.247Z,997.34
2022-12-15T02:06:47.754Z,997.38
2022-12-15T02:07:28.207Z,997.44
2022-12-15T02:08:08.690Z,997.43
2022-12-15T02:08:49.178Z,997.45
2022-12-15T02:09:29.705Z,997.44
2022-12-15T02:10:10.164Z,997.39
2022-12-15T02:10:50.695Z,997.4
2022-12-15T02:11:31.143Z,997.38
2022-12-15T02:12:11.648Z,997.41
2022-12-15T02:12:52.160Z,997.44
2022-12-15T02:13:32.985Z,997.44
2022-12-15T02:14:13.149Z,997.43
2022-12-15T02:14:53.631Z,997.45
2022-12-15T02:15:34.126Z,997.42
2022-12-15T02:16:14.630Z,997.44
2022-12-15T02:16:55.092Z,997.4
2022-12-15T02:17:35.610Z,997.42
2022-12-15T02:18:16.112Z,997.44
2022-12-15T02:18:56.553Z,997.39
2022-12-15T02:19:37.048Z,997.4
2022-12-15T02:20:17.558Z,997.42
2022-12-15T02:20:58.025Z,997.39
2022-12-15T02:21:38.551Z,997.38
2022-12-15T02:22:19.045Z,997.34
2022-12-15T02:22:59.536Z,997.37
2022-12-15T02:23:40.026Z,997.35
2022-12-15T02:24:20.522Z,997.36
2022-12-15T02:25:01.056Z,997.39
2022-12-15T02:25:41.546Z,997.34
2022-12-15T02:26:22.047Z,997.38
2022-12-15T02:27:02.540Z,997.36
2022-12-15T02:27:42.991Z,997.39
2022-12-15T02:28:23.476Z,997.41
2022-12-15T02:29:03.999Z,997.42
2022-12-15T02:29:44.528Z,997.41
2022-12-15T02:30:24.999Z,997.44
2022-12-15T02:31:05.545Z,997.41
2022-12-15T02:31:46.042Z,997.41
2022-12-15T02:32:26.460Z,997.43
2022-12-15T02:33:06.938Z,997.44
2022-12-15T02:33:47.431Z,997.45
2022-12-15T02:34:27.910Z,997.45
2022-12-15T02:35:08.365Z,997.47
2022-12-15T02:35:48.868Z,997.52
2022-12-15T02:36:29.367Z,997.52
2022-12-15T02:37:09.828Z,997.5
2022-12-15T02:37:50.345Z,997.51
2022-12-15T02:38:30.874Z,997.51
2022-12-15T02:39:11.361Z,997.56
2022-12-15T02:39:51.859Z,997.54
2022-12-15T02:40:32.359Z,997.52
2022-12-15T02:41:12.829Z,997.53
2022-12-15T02:41:53.308Z,997.54
2022-12-15T02:42:33.766Z,997.54
2022-12-15T02:43:14.260Z,997.6
2022-12-15T02:43:54.747Z,997.57
2022-12-15T02:44:35.242Z,997.62
2022-12-15T02:45:15.719Z,997.63
2022-12-15T02:45:56.234Z,997.61
2022-12-15T02:49:14.911Z,997.55
2022-12-15T02:49:55.433Z,997.57
2022-12-15T02:50:42.403Z,997.56
2022-12-15T02:51:22.839Z,997.52
2022-12-15T02:52:03.316Z,997.52
2022-12-15T02:52:43.811Z,997.51
2022-12-15T02:53:24.305Z,997.53
2022-12-15T02:54:45.361Z,997.58
2022-12-15T02:55:25.784Z,997.59
2022-12-15T02:56:06.302Z,997.59
2022-12-15T02:56:46.771Z,997.61
2022-12-15T02:57:27.334Z,997.65
2022-12-15T02:58:07.732Z,997.63
2022-12-15T02:58:48.227Z,997.65
2022-12-15T02:59:28.768Z,997.64
2022-12-15T03:00:09.237Z,997.64
2022-12-15T03:00:49.716Z,997.63
2022-12-15T03:01:30.301Z,997.65
2022-12-15T03:02:10.846Z,997.64
2022-12-15T03:02:51.375Z,997.62
2022-12-15T03:03:32.107Z,997.61
2022-12-15T03:04:12.184Z,997.58
2022-12-15T03:04:52.726Z,997.59
2022-12-15T03:05:33.189Z,997.59
2022-12-15T03:06:13.695Z,997.52
2022-12-15T03:06:59.004Z,997.46
2022-12-15T03:07:34.740Z,997.47
2022-12-15T03:08:15.260Z,997.47
2022-12-15T03:08:55.730Z,997.48
2022-12-15T03:09:36.212Z,997.44
2022-12-15T03:10:16.700Z,997.45
2022-12-15T03:10:57.242Z,997.48
2022-12-15T03:11:37.838Z,997.48
2022-12-15T03:12:18.323Z,997.47
2022-12-15T03:12:58.846Z,997.48
2022-12-15T03:13:39.346Z,997.53
2022-12-15T03:15:00.311Z,997.59
2022-12-15T03:15:40.842Z,997.58
2022-12-15T03:16:21.463Z,997.61
2022-12-15T03:17:01.941Z,997.63
2022-12-15T03:17:42.390Z,997.67
2022-12-15T03:20:41.000Z,997.71
2022-12-15T03:21:21.423Z,997.71
2022-12-15T03:22:01.912Z,997.72
2022-12-15T03:22:42.412Z,997.69
2022-12-15T03:23:22.860Z,997.72
2022-12-15T03:24:03.351Z,997.68
2022-12-15T03:24:43.849Z,997.68
2022-12-15T03:25:24.303Z,997.64
2022-12-15T03:26:04.792Z,997.67
2022-12-15T03:26:45.302Z,997.68
2022-12-15T03:27:25.866Z,997.68
2022-12-15T03:28:06.274Z,997.67
2022-12-15T03:28:46.749Z,997.66
2022-12-15T03:29:27.305Z,997.68
2022-12-15T03:30:07.784Z,997.71
2022-12-15T03:30:50.357Z,997.67
2022-12-15T03:33:46.806Z,997.74
2022-12-15T03:34:27.558Z,997.75
2022-12-15T03:35:08.030Z,997.77
2022-12-15T03:35:48.629Z,997.77
2022-12-15T03:36:29.114Z,997.84
2022-12-15T03:37:09.613Z,997.78
2022-12-15T03:37:50.070Z,997.78
2022-12-15T03:38:30.629Z,997.79
2022-12-15T03:39:11.058Z,997.79
2022-12-15T03:39:51.511Z,997.79
2022-12-15T03:40:31.999Z,997.85
2022-12-15T03:41:12.480Z,997.83
2022-12-15T03:41:53.008Z,997.85
2022-12-15T03:42:33.513Z,997.82
2022-12-15T03:43:14.049Z,997.82
2022-12-15T03:43:54.518Z,997.8
2022-12-15T03:44:35.039Z,997.81
2022-12-15T03:45:15.492Z,997.81
2022-12-15T03:45:56.002Z,997.81
2022-12-15T03:46:36.450Z,997.83
2022-12-15T03:47:16.920Z,997.81
2022-12-15T03:47:57.441Z,997.81
2022-12-15T03:48:37.955Z,997.82
2022-12-15T03:49:18.442Z,997.84
2022-12-15T03:49:58.914Z,997.81
2022-12-15T03:50:39.436Z,997.79
2022-12-15T03:51:19.982Z,997.75
2022-12-15T03:52:41.117Z,997.77
2022-12-15T03:53:21.592Z,997.8
2022-12-15T03:54:02.187Z,997.8
2022-12-15T03:54:42.729Z,997.83
2022-12-15T03:55:23.236Z,997.85
2022-12-15T03:56:03.749Z,997.85
2022-12-15T03:56:44.276Z,997.86
2022-12-15T03:57:24.755Z,997.87
2022-12-15T03:58:05.244Z,997.86
2022-12-15T03:58:45.747Z,997.87
2022-12-15T04:00:06.771Z,997.82
2022-12-15T04:00:47.278Z,997.82
2022-12-15T04:01:27.921Z,997.88
2022-12-15T04:02:08.431Z,997.9
2022-12-15T04:02:50.015Z,997.9
2022-12-15T04:03:29.664Z,997.88
2022-12-15T04:04:09.846Z,997.95
2022-12-15T04:04:50.320Z,997.95
2022-12-15T04:05:30.819Z,997.96
2022-12-15T04:06:11.327Z,997.95
2022-12-15T04:06:51.819Z,998
2022-12-15T04:07:32.286Z,997.99
2022-12-15T04:08:12.766Z,998.02
2022-12-15T04:08:53.283Z,998.04
2022-12-15T04:09:33.768Z,998
2022-12-15T04:10:14.252Z,998.04
2022-12-15T04:10:54.772Z,998.03
2022-12-15T04:11:35.315Z,998.09
2022-12-15T04:12:15.818Z,998.03
2022-12-15T04:12:56.368Z,998.05
2022-12-15T04:13:36.874Z,998.08
2022-12-15T04:14:17.354Z,998.09
2022-12-15T04:14:57.848Z,998.07
2022-12-15T04:15:38.376Z,998.06
2022-12-15T04:16:20.234Z,998.01
2022-12-15T04:17:39.914Z,998.05
2022-12-15T04:18:20.387Z,998.07
2022-12-15T04:19:00.867Z,998.02
2022-12-15T04:20:21.861Z,998.03
2022-12-15T04:21:02.341Z,998.01
2022-12-15T04:21:42.861Z,998.05
2022-12-15T04:22:23.422Z,998.05
2022-12-15T04:23:03.837Z,998.07
2022-12-15T04:23:44.373Z,998.06
2022-12-15T04:24:24.855Z,998.12
2022-12-15T04:25:05.837Z,998.08
2022-12-15T04:25:46.301Z,998.05
2022-12-15T04:26:26.816Z,998.06
2022-12-15T04:27:07.312Z,998.07
2022-12-15T04:28:28.342Z,998.07
2022-12-15T04:29:08.828Z,998.06
2022-12-15T04:29:49.299Z,998.08
2022-12-15T04:30:29.782Z,998.06
2022-12-15T04:31:10.399Z,998.04
2022-12-15T04:34:23.952Z,998.04
2022-12-15T04:35:04.466Z,998.05
2022-12-15T04:35:44.979Z,998.05
2022-12-15T04:36:25.447Z,998
2022-12-15T04:37:06.002Z,997.96
2022-12-15T04:37:46.530Z,997.98
2022-12-15T04:38:27.040Z,997.93
2022-12-15T04:39:07.525Z,997.91
2022-12-15T04:39:48.009Z,997.93
2022-12-15T04:40:28.528Z,997.89
2022-12-15T04:41:09.011Z,997.87
2022-12-15T04:41:49.519Z,997.88
2022-12-15T04:42:30.039Z,997.94
2022-12-15T04:43:10.537Z,997.99
2022-12-15T04:43:51.453Z,997.95
2022-12-15T04:45:17.044Z,997.97
2022-12-15T04:45:52.981Z,997.93
2022-12-15T04:46:33.552Z,997.93
2022-12-15T04:47:13.944Z,997.92
2022-12-15T04:47:54.437Z,998
2022-12-15T04:48:34.903Z,998
2022-12-15T04:49:15.375Z,998.01
2022-12-15T04:49:55.849Z,997.99
2022-12-15T04:50:36.372Z,998.02
2022-12-15T04:51:16.799Z,998.02
2022-12-15T04:51:57.288Z,998
2022-12-15T04:52:37.820Z,998
2022-12-15T04:53:18.340Z,998.03
2022-12-15T04:53:58.822Z,998.04
2022-12-15T04:54:39.329Z,998.05
2022-12-15T04:55:19.816Z,998.04
2022-12-15T04:56:00.308Z,998.04
2022-12-15T04:56:40.777Z,998.05
2022-12-15T04:57:21.296Z,998.08
2022-12-15T04:58:01.804Z,998.14
2022-12-15T04:58:42.348Z,998.13
2022-12-15T04:59:22.833Z,998.11
2022-12-15T05:00:03.293Z,998.16
2022-12-15T05:00:43.760Z,998.17
2022-12-15T05:01:24.445Z,998.15
2022-12-15T05:02:05.112Z,998.19
2022-12-15T05:02:45.393Z,998.21
2022-12-15T05:03:25.813Z,998.18
2022-12-15T05:04:46.841Z,998.26
2022-12-15T05:05:27.280Z,998.27
2022-12-15T05:06:07.778Z,998.28
2022-12-15T05:07:28.764Z,998.32
2022-12-15T05:08:09.275Z,998.32
2022-12-15T05:08:49.969Z,998.33
2022-12-15T05:09:30.295Z,998.31
2022-12-15T05:10:14.812Z,998.34
2022-12-15T05:10:51.297Z,998.34
2022-12-15T05:11:31.786Z,998.29
2022-12-15T05:12:12.268Z,998.33
2022-12-15T05:12:52.804Z,998.29
2022-12-15T05:13:33.638Z,998.29
2022-12-15T05:14:13.895Z,998.29
2022-12-15T05:14:54.362Z,998.25
2022-12-15T05:18:08.378Z,998.3
2022-12-15T05:18:48.961Z,998.3
2022-12-15T05:19:29.417Z,998.28
2022-12-15T05:20:09.889Z,998.31
2022-12-15T05:23:23.582Z,998.35
2022-12-15T05:24:04.798Z,998.33
2022-12-15T05:24:45.291Z,998.29
2022-12-15T05:25:25.763Z,998.27
2022-12-15T05:26:06.314Z,998.24
2022-12-15T05:26:52.267Z,998.22
2022-12-15T05:27:27.392Z,998.24
2022-12-15T05:28:07.892Z,998.22
2022-12-15T05:28:48.396Z,998.25
2022-12-15T05:29:28.956Z,998.28
2022-12-15T05:30:09.479Z,998.28
2022-12-15T05:30:50.036Z,998.35
2022-12-15T05:31:30.494Z,998.35
2022-12-15T05:32:10.948Z,998.35
2022-12-15T05:32:51.450Z,998.34
2022-12-15T05:33:32.221Z,998.31
2022-12-15T05:34:12.513Z,998.4
2022-12-15T05:34:53.037Z,998.35
2022-12-15T05:35:33.526Z,998.41
2022-12-15T05:36:14.040Z,998.38
2022-12-15T05:37:35.050Z,998.39
2022-12-15T05:38:15.529Z,998.38
2022-12-15T05:38:56.070Z,998.42
2022-12-15T05:39:36.578Z,998.38
2022-12-15T05:40:17.079Z,998.37
2022-12-15T05:40:57.587Z,998.35
2022-12-15T05:41:38.082Z,998.36
2022-12-15T05:42:18.595Z,998.39
2022-12-15T05:42:59.135Z,998.4
2022-12-15T05:43:39.603Z,998.35
2022-12-15T05:44:20.122Z,998.36
2022-12-15T05:45:00.652Z,998.37
2022-12-15T05:45:41.302Z,998.38
2022-12-15T05:46:21.924Z,998.34
2022-12-15T05:47:02.351Z,998.33
2022-12-15T05:47:42.912Z,998.4
2022-12-15T05:48:23.411Z,998.39
2022-12-15T05:49:03.927Z,998.4
2022-12-15T05:49:44.460Z,998.42
2022-12-15T05:50:24.987Z,998.44
2022-12-15T05:51:05.587Z,998.48
2022-12-15T05:51:46.069Z,998.49
2022-12-15T05:52:26.599Z,998.48
2022-12-15T05:53:07.115Z,998.52
2022-12-15T05:53:47.533Z,998.5
2022-12-15T05:54:28.041Z,998.57
2022-12-15T06:32:01.751Z,998.69
2022-12-15T06:32:42.100Z,998.63
2022-12-15T06:33:22.568Z,998.68
2022-12-15T06:34:03.108Z,998.65
2022-12-15T06:34:43.639Z,998.69
2022-12-15T06:35:24.184Z,998.72
2022-12-15T06:36:04.736Z,998.75
2022-12-15T06:36:45.281Z,998.71
2022-12-15T06:37:25.797Z,998.76
2022-12-15T06:38:06.276Z,998.74
2022-12-15T06:38:49.797Z,998.77
2022-12-15T06:39:27.283Z,998.74
2022-12-15T06:40:07.776Z,998.77
2022-12-15T06:40:48.308Z,998.79
2022-12-15T06:41:28.818Z,998.78
2022-12-15T06:42:09.391Z,998.78
2022-12-15T06:42:49.867Z,998.75
2022-12-15T06:43:30.721Z,998.76
2022-12-15T06:44:10.851Z,998.73
2022-12-15T06:44:51.363Z,998.76
2022-12-15T06:45:31.860Z,998.75
2022-12-15T06:46:12.484Z,998.73
2022-12-15T06:46:52.944Z,998.77
2022-12-15T06:47:33.514Z,998.76
2022-12-15T06:48:13.990Z,998.73
2022-12-15T06:48:54.570Z,998.71
2022-12-15T06:49:35.024Z,998.79
2022-12-15T06:50:18.195Z,998.77
2022-12-15T06:50:58.821Z,998.76
2022-12-15T06:51:39.309Z,998.78
2022-12-15T06:52:19.825Z,998.81
2022-12-15T06:53:00.357Z,998.79
2022-12-15T06:53:40.939Z,998.81
2022-12-15T06:54:21.472Z,998.81
2022-12-15T06:55:02.099Z,998.78
2022-12-15T06:55:42.684Z,998.78
2022-12-15T06:56:27.175Z,998.82
2022-12-15T06:57:03.855Z,998.77
2022-12-15T06:57:45.352Z,998.74
2022-12-15T06:58:28.537Z,998.81
2022-12-15T06:59:09.126Z,998.82
2022-12-15T06:59:50.380Z,998.84
2022-12-15T07:00:30.890Z,998.87
2022-12-15T07:01:11.581Z,998.84
2022-12-15T07:01:52.186Z,998.88
2022-12-15T07:02:33.061Z,998.86
2022-12-15T07:03:13.476Z,998.87
2022-12-15T07:03:54.780Z,998.85
2022-12-15T07:04:35.095Z,998.86
2022-12-15T07:05:15.660Z,998.88
2022-12-15T07:05:56.145Z,998.88
2022-12-15T07:06:37.042Z,998.85
2022-12-15T07:07:17.545Z,998.85
2022-12-15T07:07:58.007Z,998.81
2022-12-15T07:09:19.092Z,998.84
2022-12-15T07:09:59.576Z,998.82
2022-12-15T07:10:40.136Z,998.82
2022-12-15T07:11:20.688Z,998.78
2022-12-15T07:12:01.315Z,998.77
2022-12-15T07:12:41.802Z,998.79
2022-12-15T07:13:22.326Z,998.78
2022-12-15T07:14:02.922Z,998.82
2022-12-15T07:14:44.809Z,998.84
2022-12-15T07:15:23.940Z,998.89
2022-12-15T07:16:04.493Z,998.9
2022-12-15T07:16:45.082Z,998.91
2022-12-15T07:17:25.563Z,998.95
2022-12-15T07:18:06.053Z,998.93
2022-12-15T07:18:46.486Z,998.92
2022-12-15T07:21:45.757Z,999.04
2022-12-15T07:22:26.362Z,999.01
2022-12-15T07:23:07.029Z,999.04
2022-12-15T07:23:56.541Z,999.04
2022-12-15T07:24:28.307Z,999.06
2022-12-15T07:25:10.119Z,999.02
2022-12-15T07:25:50.651Z,999.06
2022-12-15T07:26:31.288Z,999.08
2022-12-15T07:27:12.092Z,999.09
2022-12-15T07:27:52.581Z,999.11
2022-12-15T07:28:33.995Z,999.1
2022-12-15T07:29:18.192Z,999.13
2022-12-15T07:29:54.953Z,999.09
2022-12-15T07:30:38.814Z,999.16
2022-12-15T07:31:16.148Z,999.12
2022-12-15T07:31:57.036Z,999.09
2022-12-15T07:32:38.085Z,999.1
2022-12-15T07:35:52.054Z,999.21
2022-12-15T07:36:32.454Z,999.18
2022-12-15T07:37:12.972Z,999.18
2022-12-15T07:37:53.598Z,999.16
2022-12-15T07:38:34.323Z,999.13
2022-12-15T07:39:16.412Z,999.17
2022-12-15T07:39:56.997Z,999.13
2022-12-15T07:40:37.482Z,999.11
2022-12-15T07:41:19.030Z,999.11
2022-12-15T07:42:00.168Z,999.12
2022-12-15T07:42:40.424Z,999.08
2022-12-15T07:46:10.489Z,999.08
2022-12-15T07:49:10.821Z,999.02
2022-12-15T07:49:56.106Z,999.04
2022-12-15T07:50:37.243Z,999.04
2022-12-15T07:51:19.928Z,999.06
2022-12-15T07:52:00.229Z,999.04
2022-12-15T07:52:41.253Z,999.08
2022-12-15T07:53:22.333Z,999.06
2022-12-15T07:54:44.806Z,999.09
2022-12-15T07:55:43.593Z,999.16
2022-12-15T07:56:09.219Z,999.15
2022-12-15T07:59:23.739Z,999.13
2022-12-15T08:00:04.316Z,999.17
2022-12-15T08:00:49.133Z,999.17
2022-12-15T08:01:31.087Z,999.24
2022-12-15T08:02:11.782Z,999.27
2022-12-15T08:02:52.321Z,999.25
2022-12-15T08:03:33.373Z,999.26
2022-12-15T08:06:54.941Z,999.38
2022-12-15T08:07:35.404Z,999.35
2022-12-15T08:08:18.348Z,999.38
2022-12-15T08:08:59.096Z,999.38
2022-12-15T08:09:39.604Z,999.4
2022-12-15T08:10:20.244Z,999.4
2022-12-15T08:11:01.647Z,999.47
2022-12-15T08:12:23.265Z,999.42
2022-12-15T08:13:03.937Z,999.42
2022-12-15T08:14:02.840Z,999.41
2022-12-15T08:14:26.002Z,999.43
2022-12-15T08:15:07.072Z,999.4
2022-12-15T08:15:47.666Z,999.4
2022-12-15T08:16:28.511Z,999.44
2022-12-15T08:17:09.682Z,999.44
2022-12-15T08:17:50.539Z,999.42
2022-12-15T08:18:31.100Z,999.4
2022-12-15T08:19:11.731Z,999.48
2022-12-15T08:19:55.715Z,999.46
2022-12-15T08:20:33.054Z,999.49
2022-12-15T08:21:13.621Z,999.5
2022-12-15T08:22:35.544Z,999.49
2022-12-15T08:23:16.162Z,999.5
2022-12-15T08:23:56.853Z,999.49
2022-12-15T08:24:37.543Z,999.49
2022-12-15T08:25:18.240Z,999.5
2022-12-15T08:25:58.867Z,999.52
2022-12-15T08:26:39.550Z,999.53
2022-12-15T08:27:20.323Z,999.51
2022-12-15T08:28:01.254Z,999.54
2022-12-15T08:28:41.804Z,999.58
2022-12-15T08:32:21.874Z,999.5
2022-12-15T08:33:02.314Z,999.56
2022-12-15T08:33:43.027Z,999.52
2022-12-15T08:34:23.504Z,999.58
2022-12-15T08:35:04.020Z,999.62
2022-12-15T08:35:56.566Z,999.65
2022-12-15T08:36:25.679Z,999.69
2022-12-15T08:37:06.428Z,999.65
2022-12-15T08:37:47.025Z,999.68
2022-12-15T08:38:28.043Z,999.71
2022-12-15T08:39:08.642Z,999.67
2022-12-15T08:39:49.261Z,999.68
2022-12-15T08:40:29.708Z,999.73
2022-12-15T08:41:10.389Z,999.72
2022-12-15T08:41:50.897Z,999.69
2022-12-15T08:42:31.451Z,999.68
2022-12-15T08:43:12.946Z,999.66
2022-12-15T08:43:53.507Z,999.68
2022-12-15T08:44:34.040Z,999.71
2022-12-15T08:45:14.560Z,999.71
2022-12-15T08:45:55.144Z,999.71
2022-12-15T08:46:35.598Z,999.71
2022-12-15T08:47:16.131Z,999.69
2022-12-15T08:47:56.676Z,999.7
2022-12-15T08:48:37.199Z,999.69
2022-12-15T08:49:21.618Z,999.69
2022-12-15T08:49:58.259Z,999.71
2022-12-15T08:53:30.558Z,999.75
2022-12-15T08:53:53.794Z,999.72
2022-12-15T08:54:34.720Z,999.75
2022-12-15T08:55:20.846Z,999.75
2022-12-15T08:55:56.978Z,999.73
2022-12-15T08:56:38.350Z,999.76
2022-12-15T08:57:19.717Z,999.74
2022-12-15T08:58:02.548Z,999.77
2022-12-15T08:58:45.129Z,999.76
2022-12-15T08:59:26.481Z,999.77
2022-12-15T09:00:07.693Z,999.76
2022-12-15T09:00:49.665Z,999.75
2022-12-15T09:01:31.531Z,999.81
2022-12-15T09:02:54.628Z,999.87
2022-12-15T09:03:36.197Z,999.82
2022-12-15T09:04:17.229Z,999.81
2022-12-15T09:04:58.669Z,999.85
2022-12-15T09:05:40.779Z,999.85
2022-12-15T09:06:25.763Z,999.86
2022-12-15T09:07:07.465Z,999.86
2022-12-15T09:07:48.924Z,999.89
2022-12-15T09:08:30.481Z,999.94
2022-12-15T09:09:12.173Z,999.9
2022-12-15T09:09:54.720Z,999.92
2022-12-15T09:10:36.761Z,999.98
2022-12-15T09:11:19.510Z,999.95
2022-12-15T09:12:01.530Z,999.98
2022-12-15T09:12:43.883Z,999.99
2022-12-15T09:13:25.755Z,1000.01
2022-12-15T09:14:08.394Z,1000.04
2022-12-15T09:14:50.715Z,1000.05
2022-12-15T09:16:00.123Z,1000.07
2022-12-15T09:16:13.915Z,1000.04
2022-12-15T09:16:55.193Z,1000.1
2022-12-15T09:17:36.242Z,1000.11
2022-12-15T09:18:17.365Z,1000.13
2022-12-15T09:18:58.601Z,1000.19
2022-12-15T09:19:39.692Z,1000.17
2022-12-15T09:20:20.746Z,1000.18
2022-12-15T09:21:01.996Z,1000.17
2022-12-15T09:21:43.117Z,1000.19
2022-12-15T09:23:05.471Z,1000.13
2022-12-15T09:23:46.596Z,1000.17
2022-12-15T09:24:34.565Z,1000.18
2022-12-15T09:25:08.810Z,1000.22
2022-12-15T09:25:49.819Z,1000.24
2022-12-15T09:26:30.913Z,1000.23
2022-12-15T09:27:12.126Z,1000.27
2022-12-15T09:27:53.215Z,1000.27
2022-12-15T09:28:34.269Z,1000.29
2022-12-15T09:29:15.366Z,1000.3
2022-12-15T09:30:37.590Z,1000.29
2022-12-15T09:31:18.649Z,1000.24
2022-12-15T09:31:59.757Z,1000.27
2022-12-15T09:32:40.762Z,1000.27
2022-12-15T09:33:21.916Z,1000.26
2022-12-15T09:34:03.060Z,1000.29
2022-12-15T09:34:44.137Z,1000.25
2022-12-15T09:35:25.303Z,1000.29
2022-12-15T09:36:06.485Z,1000.29
2022-12-15T09:36:47.740Z,1000.29
2022-12-15T09:37:28.912Z,1000.25
2022-12-15T09:38:10.080Z,1000.32
2022-12-15T09:38:51.346Z,1000.31
2022-12-15T09:39:32.582Z,1000.31
2022-12-15T09:40:13.623Z,1000.35
2022-12-15T09:40:54.813Z,1000.35
2022-12-15T09:41:35.869Z,1000.38
2022-12-15T09:42:16.977Z,1000.39
2022-12-15T09:43:17.913Z,1000.43
2022-12-15T09:43:44.774Z,1000.38
2022-12-15T09:44:20.354Z,1000.39
2022-12-15T09:45:01.659Z,1000.41
2022-12-15T09:45:42.696Z,1000.39
2022-12-15T09:46:23.755Z,1000.41
2022-12-15T09:47:05.013Z,1000.41
2022-12-15T09:48:27.655Z,1000.42
2022-12-15T09:49:08.848Z,1000.43
2022-12-15T09:49:49.990Z,1000.41
2022-12-15T09:50:31.124Z,1000.42
2022-12-15T09:51:12.347Z,1000.45
2022-12-15T09:51:53.429Z,1000.44
2022-12-15T09:52:34.517Z,1000.49
2022-12-15T09:53:45.332Z,1000.45
2022-12-15T09:53:57.065Z,1000.49
2022-12-15T09:54:37.682Z,1000.49
2022-12-15T09:55:19.017Z,1000.49
2022-12-15T09:56:00.009Z,1000.51
2022-12-15T09:56:41.146Z,1000.52
2022-12-15T09:57:22.339Z,1000.55
2022-12-15T09:58:44.715Z,1000.6
2022-12-15T09:59:25.908Z,1000.56
2022-12-15T10:00:07.089Z,1000.59
2022-12-15T10:00:50.721Z,1000.6
2022-12-15T10:01:29.358Z,1000.59
2022-12-15T10:02:10.570Z,1000.56
2022-12-15T10:02:51.706Z,1000.62
2022-12-15T10:04:13.914Z,1000.65
2022-12-15T10:04:55.002Z,1000.66
2022-12-15T10:06:19.985Z,1000.67
2022-12-15T10:06:58.730Z,1000.7
2022-12-15T10:07:39.789Z,1000.66
2022-12-15T10:08:20.864Z,1000.64
2022-12-15T10:09:02.260Z,1000.67
2022-12-15T10:12:17.105Z,1000.63
2022-12-15T10:13:02.189Z,1000.64
2022-12-15T10:13:40.398Z,1000.65
2022-12-15T10:14:22.618Z,1000.63
2022-12-15T10:15:03.766Z,1000.6
2022-12-15T10:15:47.555Z,1000.57
2022-12-15T10:18:25.492Z,1000.47
2022-12-15T10:19:06.586Z,1000.46
2022-12-15T10:19:50.009Z,1000.41
2022-12-15T10:20:28.630Z,1000.46
2022-12-15T10:21:09.692Z,1000.44
2022-12-15T10:21:50.744Z,1000.45
2022-12-15T10:22:31.607Z,1000.48
2022-12-15T10:25:00.150Z,1000.58
2022-12-15T10:27:39.778Z,1000.53
2022-12-15T10:28:21.738Z,1000.52
2022-12-15T10:31:22.452Z,1000.47
2022-12-15T10:32:03.023Z,1000.48
2022-12-15T10:32:43.856Z,1000.47
2022-12-15T10:33:24.147Z,1000.42
2022-12-15T10:34:04.706Z,1000.42
2022-12-15T10:34:45.251Z,1000.44
2022-12-15T10:36:06.424Z,1000.38
2022-12-15T10:36:46.893Z,1000.38